createdAt,value
2018-03-19T00:01:50.661Z,3.37
2018-03-19T00:04:18.732Z,2.90
2018-03-19T00:06:46.816Z,3.53
2018-03-19T00:09:14.865Z,3.40
2018-03-19T00:11:42.464Z,3.93
2018-03-19T00:14:10.256Z,3.40
2018-03-19T00:16:38.335Z,4.20
2018-03-19T00:19:06.187Z,3.90
2018-03-19T00:21:33.776Z,3.73
2018-03-19T00:24:01.359Z,3.80
2018-03-19T00:26:28.894Z,4.00
2018-03-19T00:28:56.799Z,3.53
2018-03-19T00:31:24.337Z,3.77
2018-03-19T00:33:51.916Z,3.87
2018-03-19T00:36:19.448Z,3.80
2018-03-19T00:38:47.036Z,4.50
2018-03-19T00:41:14.624Z,4.40
2018-03-19T00:43:42.164Z,5.17
2018-03-19T00:46:10.274Z,4.60
2018-03-19T00:48:37.862Z,4.80
2018-03-19T00:51:05.398Z,4.60
2018-03-19T00:53:33.375Z,4.53
2018-03-19T00:56:01.720Z,5.27
2018-03-19T00:58:29.259Z,4.80
2018-03-19T01:00:57.244Z,4.83
2018-03-19T01:03:24.836Z,4.83
2018-03-19T01:05:52.420Z,5.20
2018-03-19T01:08:20.018Z,5.27
2018-03-19T01:10:47.602Z,5.20
2018-03-19T01:13:15.676Z,5.80
2018-03-19T01:15:43.216Z,5.67
2018-03-19T01:18:11.179Z,5.43
2018-03-19T01:20:38.785Z,5.00
2018-03-19T01:23:06.324Z,5.77
2018-03-19T01:25:33.863Z,5.53
2018-03-19T01:28:01.444Z,5.50
2018-03-19T01:30:29.003Z,5.20
2018-03-19T01:32:57.112Z,5.27
2018-03-19T01:35:24.660Z,5.50
2018-03-19T01:37:52.258Z,5.37
2018-03-19T01:40:19.808Z,5.97
2018-03-19T01:42:47.396Z,5.80
2018-03-19T01:45:14.980Z,6.00
2018-03-19T01:47:42.968Z,5.73
2018-03-19T01:50:10.555Z,6.27
2018-03-19T01:52:49.065Z,5.97
2018-03-19T01:55:16.604Z,5.93
2018-03-19T01:57:44.184Z,5.73
2018-03-19T02:00:11.736Z,5.67
2018-03-19T02:02:39.564Z,5.77
2018-03-19T02:05:07.152Z,6.47
2018-03-19T02:07:34.691Z,5.47
2018-03-19T02:10:02.294Z,5.50
2018-03-19T02:12:29.832Z,5.43
2018-03-19T02:14:57.890Z,5.33
2018-03-19T02:17:25.431Z,5.00
2018-03-19T02:19:52.985Z,4.63
2018-03-19T02:22:20.997Z,4.00
2018-03-19T02:24:48.550Z,4.57
2018-03-19T02:27:16.136Z,4.50
2018-03-19T02:29:43.689Z,4.93
2018-03-19T02:32:11.290Z,4.90
2018-03-19T02:34:38.888Z,5.00
2018-03-19T02:37:07.454Z,4.90
2018-03-19T02:39:35.448Z,4.47
2018-03-19T02:42:03.024Z,4.90
2018-03-19T02:44:30.559Z,4.73
2018-03-19T02:46:58.152Z,4.90
2018-03-19T02:49:25.762Z,5.23
2018-03-19T02:51:53.374Z,4.93
2018-03-19T02:54:20.931Z,4.50
2018-03-19T02:56:48.491Z,5.43
2018-03-19T02:59:16.370Z,4.97
2018-03-19T03:01:43.956Z,4.73
2018-03-19T03:04:11.512Z,4.70
2018-03-19T03:06:39.093Z,4.50
2018-03-19T03:09:06.646Z,4.63
2018-03-19T03:11:34.223Z,5.03
2018-03-19T03:14:01.772Z,4.60
2018-03-19T03:16:29.351Z,4.90
2018-03-19T03:18:56.900Z,5.10
2018-03-19T03:21:24.485Z,5.27
2018-03-19T03:23:52.023Z,4.93
2018-03-19T03:26:19.616Z,6.10
2018-03-19T03:28:47.165Z,4.93
2018-03-19T03:31:14.755Z,5.40
2018-03-19T03:33:42.291Z,5.37
2018-03-19T03:36:09.834Z,5.60
2018-03-19T03:38:37.388Z,5.43
2018-03-19T03:41:04.967Z,5.47
2018-03-19T03:43:32.546Z,5.63
2018-03-19T03:46:00.138Z,5.87
2018-03-19T03:48:27.864Z,5.47
2018-03-19T03:50:55.928Z,5.60
2018-03-19T03:53:23.465Z,6.30
2018-03-19T03:55:51.047Z,6.37
2018-03-19T03:58:18.596Z,6.70
2018-03-19T04:00:46.172Z,6.73
2018-03-19T04:03:13.763Z,6.27
2018-03-19T04:05:41.598Z,6.47
2018-03-19T04:08:09.198Z,6.20
2018-03-19T04:10:36.763Z,6.30
2018-03-19T04:13:04.569Z,5.80
2018-03-19T04:15:32.184Z,5.50
2018-03-19T04:17:59.764Z,5.57
2018-03-19T04:20:27.349Z,5.67
2018-03-19T04:22:54.945Z,5.83
2018-03-19T04:25:22.503Z,5.77
2018-03-19T04:27:50.052Z,6.03
2018-03-19T04:30:17.636Z,5.97
2018-03-19T04:32:45.188Z,5.43
2018-03-19T04:35:12.776Z,5.53
2018-03-19T04:37:40.931Z,5.50
2018-03-19T04:40:08.524Z,5.50
2018-03-19T04:42:36.081Z,5.83
2018-03-19T04:45:03.660Z,4.90
2018-03-19T04:47:31.204Z,5.30
2018-03-19T04:49:58.793Z,5.57
2018-03-19T04:52:26.342Z,5.70
2018-03-19T04:54:54.537Z,5.30
2018-03-19T04:57:22.077Z,5.53
2018-03-19T04:59:49.652Z,5.57
2018-03-19T05:02:17.196Z,5.37
2018-03-19T05:04:44.787Z,5.60
2018-03-19T05:07:12.554Z,5.53
2018-03-19T05:09:40.141Z,4.63
2018-03-19T05:12:07.723Z,5.60
2018-03-19T05:14:36.077Z,5.20
2018-03-19T05:17:03.668Z,4.77
2018-03-19T05:19:31.207Z,4.57
2018-03-19T05:21:58.791Z,5.33
2018-03-19T05:24:26.327Z,5.30
2018-03-19T05:26:53.940Z,5.03
2018-03-19T05:29:21.488Z,5.00
2018-03-19T05:31:49.064Z,5.23
2018-03-19T05:34:16.652Z,5.47
2018-03-19T05:36:45.052Z,5.17
2018-03-19T05:39:12.644Z,5.60
2018-03-19T05:41:40.233Z,5.70
2018-03-19T05:44:07.788Z,5.47
2018-03-19T05:46:35.390Z,5.53
2018-03-19T05:49:03.870Z,5.53
2018-03-19T05:51:35.421Z,5.95
2018-03-19T05:54:03.720Z,5.40
2018-03-19T05:56:31.287Z,5.90
2018-03-19T05:58:58.894Z,6.03
2018-03-19T06:01:27.409Z,5.23
2018-03-19T06:03:56.037Z,5.87
2018-03-19T06:06:23.640Z,6.10
2018-03-19T06:08:51.985Z,5.60
2018-03-19T06:11:19.543Z,6.20
2018-03-19T06:13:47.491Z,5.53
2018-03-19T06:16:16.111Z,5.68
2018-03-19T06:18:44.312Z,5.87
2018-03-19T06:21:12.638Z,5.77
2018-03-19T06:23:40.191Z,5.85
2018-03-19T06:26:08.261Z,4.87
2018-03-19T06:28:35.892Z,4.97
2018-03-19T06:31:03.899Z,5.40
2018-03-19T06:33:32.058Z,4.97
2018-03-19T06:35:59.646Z,5.47
2018-03-19T06:38:27.597Z,5.20
2018-03-19T06:40:55.518Z,5.20
2018-03-19T06:43:23.142Z,4.95
2018-03-19T06:45:51.340Z,5.20
2018-03-19T06:48:19.066Z,4.73
2018-03-19T06:50:46.983Z,4.73
2018-03-19T06:53:15.362Z,5.30
2018-03-19T06:55:43.037Z,5.65
2018-03-19T06:58:10.639Z,5.68
2018-03-19T07:00:38.295Z,6.75
2018-03-19T07:03:06.879Z,6.17
2018-03-19T07:05:34.706Z,6.70
2018-03-19T07:08:02.469Z,7.55
2018-03-19T07:10:30.080Z,6.20
2018-03-19T07:12:58.315Z,7.20
2018-03-19T07:15:25.870Z,8.33
2018-03-19T07:17:53.482Z,8.07
2018-03-19T07:20:21.063Z,9.47
2018-03-19T07:22:48.686Z,7.67
2018-03-19T07:25:16.540Z,7.95
2018-03-19T07:27:44.946Z,8.43
2018-03-19T07:30:12.516Z,9.30
2018-03-19T07:32:40.126Z,9.82
2018-03-19T07:35:07.906Z,10.47
2018-03-19T07:37:35.958Z,8.70
2018-03-19T07:40:03.754Z,10.10
2018-03-19T07:42:31.465Z,8.82
2018-03-19T07:44:59.269Z,8.17
2018-03-19T07:47:28.887Z,9.07
2018-03-19T07:49:58.586Z,8.18
2018-03-19T07:52:26.550Z,8.57
2018-03-19T07:54:54.552Z,8.40
2018-03-19T07:57:23.684Z,9.93
2018-03-19T07:59:51.992Z,8.17
2018-03-19T08:02:19.750Z,7.50
2018-03-19T08:04:48.124Z,7.70
2018-03-19T08:07:15.755Z,7.40
2018-03-19T08:09:43.402Z,9.48
2018-03-19T08:12:11.254Z,9.30
2018-03-19T08:14:38.871Z,9.17
2018-03-19T08:17:07.249Z,8.77
2018-03-19T08:19:34.845Z,9.77
2018-03-19T08:22:03.396Z,10.83
2018-03-19T08:24:31.222Z,11.20
2018-03-19T08:27:07.555Z,10.68
2018-03-19T08:29:35.285Z,10.17
2018-03-19T08:32:02.915Z,9.53
2018-03-19T08:34:30.626Z,11.37
2018-03-19T08:36:58.377Z,9.57
2018-03-19T08:39:26.483Z,10.88
2018-03-19T08:41:54.583Z,10.63
2018-03-19T08:44:22.463Z,11.53
2018-03-19T08:46:50.083Z,12.20
2018-03-19T08:49:17.663Z,13.70
2018-03-19T08:51:45.480Z,13.63
2018-03-19T08:54:13.221Z,15.23
2018-03-19T08:56:40.829Z,14.90
2018-03-19T08:59:08.419Z,13.90
2018-03-19T09:01:36.028Z,12.37
2018-03-19T09:04:04.643Z,12.77
2018-03-19T09:06:32.429Z,11.95
2018-03-19T09:09:00.035Z,11.73
2018-03-19T09:11:28.895Z,12.20
2018-03-19T09:13:56.501Z,10.32
2018-03-19T09:16:24.685Z,11.10
2018-03-19T09:18:52.468Z,10.55
2018-03-19T09:21:20.070Z,11.10
2018-03-19T09:23:47.898Z,10.60
2018-03-19T09:26:16.012Z,10.60
2018-03-19T09:28:44.084Z,11.33
2018-03-19T09:33:35.636Z,11.60
2018-03-19T09:36:04.017Z,11.07
2018-03-19T09:38:31.640Z,10.50
2018-03-19T09:40:59.521Z,11.18
2018-03-19T09:43:28.189Z,9.87
2018-03-19T09:45:55.793Z,10.57
2018-03-19T09:48:24.234Z,10.90
2018-03-19T09:50:52.006Z,9.60
2018-03-19T09:53:19.578Z,9.03
2018-03-19T09:55:47.394Z,9.77
2018-03-19T09:58:15.003Z,9.77
2018-03-19T10:00:42.576Z,10.23
2018-03-19T10:03:10.828Z,10.20
2018-03-19T10:05:38.432Z,9.77
2018-03-19T10:08:06.037Z,12.13
2018-03-19T10:10:33.887Z,11.10
2018-03-19T10:13:01.446Z,9.23
2018-03-19T10:15:29.128Z,10.17
2018-03-19T10:17:56.714Z,9.63
2018-03-19T10:20:24.846Z,12.03
2018-03-19T10:22:52.443Z,12.27
2018-03-19T10:25:20.051Z,11.00
2018-03-19T10:27:47.722Z,11.67
2018-03-19T10:30:15.297Z,9.80
2018-03-19T10:32:43.459Z,10.88
2018-03-19T10:35:11.208Z,11.25
2018-03-19T10:37:38.974Z,7.90
2018-03-19T10:40:06.599Z,7.50
2018-03-19T10:42:34.713Z,9.73
2018-03-19T10:45:03.158Z,8.73
2018-03-19T10:47:31.221Z,9.07
2018-03-19T10:49:59.028Z,9.67
2018-03-19T10:52:26.599Z,8.60
2018-03-19T10:54:54.206Z,8.93
2018-03-19T10:57:21.783Z,7.80
2018-03-19T10:59:49.399Z,9.02
2018-03-19T11:05:24.585Z,8.27
2018-03-19T11:07:58.133Z,7.82
2018-03-19T11:10:25.871Z,8.63
2018-03-19T11:12:53.858Z,8.75
2018-03-19T11:15:21.604Z,8.52
2018-03-19T11:17:49.895Z,8.53
2018-03-19T11:20:17.502Z,7.60
2018-03-19T11:22:45.135Z,7.37
2018-03-19T11:25:12.875Z,7.80
2018-03-19T11:27:40.482Z,8.13
2018-03-19T11:30:08.126Z,7.70
2018-03-19T11:32:35.758Z,8.52
2018-03-19T11:35:03.705Z,8.73
2018-03-19T11:37:31.335Z,8.63
2018-03-19T11:39:58.960Z,9.03
2018-03-19T11:42:26.535Z,8.40
2018-03-19T11:44:55.392Z,8.95
2018-03-19T11:47:23.459Z,8.43
2018-03-19T11:49:51.046Z,9.27
2018-03-19T11:52:18.988Z,11.47
2018-03-19T11:54:46.676Z,10.10
2018-03-19T11:57:14.282Z,9.00
2018-03-19T11:59:41.932Z,9.32
2018-03-19T12:02:10.458Z,8.77
2018-03-19T12:04:39.054Z,8.73
2018-03-19T12:07:06.738Z,9.00
2018-03-19T12:09:34.302Z,9.20
2018-03-19T12:12:01.905Z,9.70
2018-03-19T12:14:29.468Z,9.80
2018-03-19T12:16:57.070Z,9.98
2018-03-19T12:19:24.704Z,9.50
2018-03-19T12:21:52.411Z,10.30
2018-03-19T12:24:19.982Z,10.50
2018-03-19T12:26:47.660Z,10.40
2018-03-19T12:29:15.264Z,10.35
2018-03-19T12:31:42.841Z,10.75
2018-03-19T12:34:10.445Z,9.40
2018-03-19T12:36:38.004Z,9.93
2018-03-19T12:39:05.790Z,10.47
2018-03-19T12:41:33.337Z,9.93
2018-03-19T12:44:02.232Z,10.83
2018-03-19T12:46:29.792Z,12.07
2018-03-19T12:48:57.597Z,11.97
2018-03-19T12:51:31.245Z,11.03
2018-03-19T12:53:58.824Z,11.30
2018-03-19T12:56:26.409Z,10.73
2018-03-19T12:58:54.016Z,11.13
2018-03-19T13:01:22.318Z,12.63
2018-03-19T13:03:49.856Z,11.13
2018-03-19T13:06:17.461Z,11.77
2018-03-19T13:08:45.015Z,12.82
2018-03-19T13:11:12.656Z,12.83
2018-03-19T13:13:40.227Z,12.85
2018-03-19T13:16:07.800Z,10.97
2018-03-19T13:18:35.396Z,11.17
2018-03-19T13:21:03.822Z,11.93
2018-03-19T13:23:31.489Z,12.05
2018-03-19T13:25:59.783Z,11.80
2018-03-19T13:28:27.401Z,12.60
2018-03-19T13:30:54.977Z,11.93
2018-03-19T13:33:22.532Z,13.20
2018-03-19T13:35:50.136Z,13.17
2018-03-19T13:38:17.745Z,14.98
2018-03-19T13:40:45.935Z,15.00
2018-03-19T13:43:13.503Z,16.63
2018-03-19T13:45:41.113Z,17.30
2018-03-19T13:48:09.247Z,20.20
2018-03-19T13:50:37.440Z,19.07
2018-03-19T13:53:05.009Z,18.20
2018-03-19T13:55:32.646Z,19.77
2018-03-19T13:58:00.682Z,18.53
2018-03-19T14:00:28.296Z,20.60
2018-03-19T14:02:56.669Z,20.08
2018-03-19T14:05:24.893Z,17.97
2018-03-19T14:07:52.842Z,19.87
2018-03-19T14:10:20.399Z,18.00
2018-03-19T14:12:48.008Z,17.10
2018-03-19T14:15:15.565Z,17.80
2018-03-19T14:17:43.150Z,16.30
2018-03-19T14:20:11.165Z,15.47
2018-03-19T14:22:39.358Z,14.83
2018-03-19T14:25:07.953Z,14.80
2018-03-19T14:27:36.532Z,13.83
2018-03-19T14:30:04.105Z,13.60
2018-03-19T14:32:31.850Z,13.27
2018-03-19T14:34:59.914Z,13.17
2018-03-19T14:37:27.521Z,13.13
2018-03-19T14:39:55.139Z,13.57
2018-03-19T14:42:23.252Z,13.20
2018-03-19T14:44:50.877Z,13.33
2018-03-19T14:47:18.448Z,11.83
2018-03-19T14:49:46.129Z,13.30
2018-03-19T14:52:14.460Z,12.63
2018-03-19T14:54:42.321Z,14.27
2018-03-19T14:57:10.145Z,13.60
2018-03-19T14:59:39.825Z,13.00
2018-03-19T15:02:07.386Z,11.97
2018-03-19T15:04:35.850Z,13.57
2018-03-19T15:07:03.468Z,13.43
2018-03-19T15:09:31.086Z,12.97
2018-03-19T15:11:58.693Z,12.73
2018-03-19T15:14:26.296Z,13.83
2018-03-19T15:16:53.851Z,12.93
2018-03-19T15:19:22.301Z,13.13
2018-03-19T15:21:50.274Z,13.10
2018-03-19T15:24:17.841Z,12.90
2018-03-19T15:26:45.419Z,13.43
2018-03-19T15:29:13.015Z,13.97
2018-03-19T15:31:41.422Z,13.27
2018-03-19T15:34:09.038Z,12.63
2018-03-19T15:36:37.022Z,13.30
2018-03-19T15:39:04.655Z,14.17
2018-03-19T15:41:32.493Z,14.77
2018-03-19T15:44:00.131Z,13.53
2018-03-19T15:46:27.728Z,13.43
2018-03-19T15:48:55.875Z,13.87
2018-03-19T15:51:23.542Z,13.50
2018-03-19T15:53:51.096Z,13.30
2018-03-19T15:56:20.109Z,14.17
2018-03-19T15:58:48.025Z,13.47
2018-03-19T16:01:15.951Z,14.57
2018-03-19T16:03:44.370Z,13.00
2018-03-19T16:06:16.365Z,14.07
2018-03-19T16:08:45.385Z,12.43
2018-03-19T16:11:15.024Z,11.70
2018-03-19T16:13:42.575Z,12.47
2018-03-19T16:16:11.444Z,13.00
2018-03-19T16:18:38.997Z,12.03
2018-03-19T16:21:09.061Z,10.93
2018-03-19T16:23:36.624Z,11.50
2018-03-19T16:26:05.023Z,12.27
2018-03-19T16:28:32.625Z,11.50
2018-03-19T16:31:00.175Z,11.97
2018-03-19T16:33:28.684Z,10.70
2018-03-19T16:35:58.147Z,12.07
2018-03-19T16:38:26.093Z,11.80
2018-03-19T16:40:54.150Z,12.03
2018-03-19T16:43:22.890Z,12.03
2018-03-19T16:45:50.741Z,12.10
2018-03-19T16:48:19.092Z,11.83
2018-03-19T16:50:47.063Z,11.93
2018-03-19T16:53:14.685Z,11.20
2018-03-19T16:55:43.096Z,12.67
2018-03-19T16:58:11.712Z,12.03
2018-03-19T17:00:39.652Z,11.67
2018-03-19T17:03:07.592Z,12.20
2018-03-19T17:05:35.160Z,12.93
2018-03-19T17:08:02.782Z,13.67
2018-03-19T17:10:31.156Z,14.07
2018-03-19T17:12:58.788Z,12.60
2018-03-19T17:15:27.200Z,12.00
2018-03-19T17:17:54.814Z,13.13
2018-03-19T17:20:22.891Z,11.67
2018-03-19T17:22:50.881Z,11.77
2018-03-19T17:25:19.831Z,11.30
2018-03-19T17:27:49.303Z,11.03
2018-03-19T17:30:18.694Z,10.83
2018-03-19T17:32:46.757Z,10.43
2018-03-19T17:35:14.761Z,11.30
2018-03-19T17:37:43.330Z,12.10
2018-03-19T17:40:12.028Z,11.80
2018-03-19T17:42:40.235Z,11.00
2018-03-19T17:45:09.095Z,12.27
2018-03-19T17:47:37.483Z,12.20
2018-03-19T17:50:05.847Z,11.23
2018-03-19T17:52:35.239Z,11.07
2018-03-19T17:55:03.619Z,11.73
2018-03-19T17:57:33.585Z,10.80
2018-03-19T18:00:02.241Z,11.87
2018-03-19T18:02:30.522Z,11.93
2018-03-19T18:04:59.130Z,11.30
2018-03-19T18:07:28.260Z,11.70
2018-03-19T18:09:56.511Z,11.03
2018-03-19T18:12:25.714Z,11.80
2018-03-19T18:14:53.987Z,12.13
2018-03-19T18:17:22.630Z,10.73
2018-03-19T18:19:51.621Z,11.90
2018-03-19T18:22:19.939Z,11.83
2018-03-19T18:24:51.266Z,11.97
2018-03-19T18:27:21.245Z,11.03
2018-03-19T18:29:50.666Z,10.83
2018-03-19T18:32:20.497Z,11.63
2018-03-19T18:34:50.656Z,10.00
2018-03-19T18:37:19.783Z,11.20
2018-03-19T18:39:48.832Z,10.77
2018-03-19T18:42:17.455Z,11.23
2018-03-19T18:44:45.660Z,10.50
2018-03-19T18:47:14.847Z,10.97
2018-03-19T18:49:43.110Z,10.43
2018-03-19T18:52:11.598Z,9.93
2018-03-19T18:54:40.584Z,10.00
2018-03-19T18:57:08.903Z,10.23
2018-03-19T18:59:37.345Z,10.50
2018-03-19T19:02:06.348Z,10.10
2018-03-19T19:04:35.241Z,10.93
2018-03-19T19:07:03.314Z,10.60
2018-03-19T19:09:32.050Z,9.67
2018-03-19T19:12:01.345Z,9.77
2018-03-19T19:14:30.073Z,9.40
2018-03-19T19:17:01.080Z,9.33
2018-03-19T19:19:29.319Z,9.33
2018-03-19T19:21:59.064Z,9.00
2018-03-19T19:24:30.296Z,8.50
2018-03-19T19:26:58.716Z,9.40
2018-03-19T19:29:27.706Z,9.57
2018-03-19T19:31:56.086Z,8.63
2018-03-19T19:34:24.777Z,9.23
2018-03-19T19:36:53.537Z,9.80
2018-03-19T19:39:22.508Z,9.63
2018-03-19T19:41:52.348Z,8.87
2018-03-19T19:44:21.055Z,9.60
2018-03-19T19:46:50.898Z,8.97
2018-03-19T19:49:20.262Z,9.20
2018-03-19T19:51:51.093Z,9.70
2018-03-19T19:54:20.711Z,8.60
2018-03-19T19:56:49.673Z,9.07
2018-03-19T19:59:18.489Z,9.00
2018-03-19T20:01:46.981Z,9.20
2018-03-19T20:04:16.057Z,8.83
2018-03-19T20:06:47.510Z,9.20
2018-03-19T20:09:16.536Z,9.67
2018-03-19T20:11:46.072Z,8.40
2018-03-19T20:14:15.365Z,8.93
2018-03-19T20:16:44.128Z,8.40
2018-03-19T20:19:12.792Z,9.73
2018-03-19T20:21:43.309Z,8.60
2018-03-19T20:24:12.436Z,9.13
2018-03-19T20:26:40.609Z,9.30
2018-03-19T20:29:09.055Z,8.43
2018-03-19T20:31:37.241Z,8.50
2018-03-19T20:34:06.117Z,9.73
2018-03-19T20:36:34.365Z,8.63
2018-03-19T20:39:04.090Z,9.13
2018-03-19T20:41:31.697Z,9.53
2018-03-19T20:43:59.576Z,9.63
2018-03-19T20:46:27.187Z,10.33
2018-03-19T20:48:55.346Z,10.00
2018-03-19T20:51:23.707Z,9.70
2018-03-19T20:53:51.956Z,10.37
2018-03-19T20:56:19.953Z,10.10
2018-03-19T20:58:47.516Z,9.77
2018-03-19T21:01:16.178Z,9.27
2018-03-19T21:03:43.792Z,9.20
2018-03-19T21:06:11.367Z,10.47
2018-03-19T21:08:39.203Z,9.47
2018-03-19T21:11:06.924Z,10.23
2018-03-19T21:13:34.800Z,10.13
2018-03-19T21:16:03.484Z,9.67
2018-03-19T21:18:31.075Z,9.90
2018-03-19T21:20:58.652Z,10.23
2018-03-19T21:23:27.195Z,10.10
2018-03-19T21:25:55.463Z,9.80
2018-03-19T21:28:23.428Z,9.50
2018-03-19T21:30:51.107Z,10.00
2018-03-19T21:33:21.323Z,9.37
2018-03-19T21:35:49.394Z,8.73
2018-03-19T21:38:17.753Z,9.23
2018-03-19T21:40:46.226Z,9.67
2018-03-19T21:43:14.638Z,9.27
2018-03-19T21:45:42.528Z,9.17
2018-03-19T21:48:10.131Z,8.93
2018-03-19T21:50:37.715Z,10.07
2018-03-19T21:53:05.532Z,8.83
2018-03-19T21:55:33.148Z,8.97
2018-03-19T21:58:00.705Z,9.07
2018-03-19T22:00:28.296Z,8.23
2018-03-19T22:02:55.882Z,8.83
2018-03-19T22:05:23.960Z,8.57
2018-03-19T22:07:51.568Z,8.57
2018-03-19T22:10:19.127Z,8.43
2018-03-19T22:12:46.675Z,8.07
2018-03-19T22:15:15.256Z,8.20
2018-03-19T22:17:42.964Z,8.70
2018-03-19T22:20:11.177Z,8.07
2018-03-19T22:22:40.158Z,9.10
2018-03-19T22:25:08.209Z,8.17
2018-03-19T22:27:36.638Z,8.17
2018-03-19T22:30:05.084Z,9.40
2018-03-19T22:32:32.880Z,8.73
2018-03-19T22:35:00.457Z,8.70
2018-03-19T22:37:28.089Z,9.50
2018-03-19T22:39:55.647Z,11.13
2018-03-19T22:42:23.692Z,11.87
2018-03-19T22:44:51.235Z,11.20
2018-03-19T22:47:19.345Z,12.40
2018-03-19T22:49:46.896Z,11.87
2018-03-19T22:52:15.505Z,11.50
2018-03-19T22:54:43.061Z,11.20
2018-03-19T22:57:10.653Z,11.17
2018-03-19T22:59:38.222Z,11.37
2018-03-19T23:02:05.826Z,10.27
2018-03-19T23:04:45.793Z,11.07
2018-03-19T23:07:13.375Z,10.40
2018-03-19T23:09:40.967Z,10.43
2018-03-19T23:12:09.404Z,10.30
2018-03-19T23:14:36.992Z,10.83
2018-03-19T23:17:04.595Z,10.00
2018-03-19T23:19:32.187Z,10.07
2018-03-19T23:21:59.748Z,10.30
2018-03-19T23:24:27.352Z,11.27
2018-03-19T23:26:55.061Z,11.20
2018-03-19T23:29:22.807Z,10.67
2018-03-19T23:31:50.400Z,10.27
2018-03-19T23:34:18.341Z,11.40
2018-03-19T23:36:45.943Z,12.10
2018-03-19T23:39:13.489Z,10.73
2018-03-19T23:41:41.049Z,11.57
2018-03-19T23:44:08.673Z,11.43
2018-03-19T23:46:36.219Z,10.23
2018-03-19T23:49:04.209Z,11.47
2018-03-19T23:51:32.512Z,11.43
2018-03-19T23:54:00.109Z,11.17
2018-03-19T23:56:27.677Z,12.60
2018-03-19T23:58:55.796Z,13.30
